WJA78 CYEG-BIKF
Flight info
| Callsign | WJA78 |
|---|---|
| Flight time | 5h 59m |
| Altitude | 33000 |
| Route | OMROD DCT NUDET DCT 55N101W 5730N09000W 6030N08000W DCT TEFFO/M079F330 DCT EMBOK DCT 64N050W 64N040W 64N030W DCT GISTU DCT GIRUG GIRUG4K |
| Aircraft | B38M/M-SDE1FGHILORVWXY/HB1 |
Departure
| Time | 2026-04-30 08:11 |
|---|---|
| Airport | Edmonton International Airport (CYEG) |
Arrival
| Time | 2026-04-30 14:11 |
|---|---|
| Airport | Keflavik International Airport (BIKF) |
| Time | Latitude | Longitude | Altitude | Speed | Heading |
|---|---|---|---|---|---|
| 2026-04-30 07:54 | 53.30582 | -113.58429 | 2344 ft | 0 kts | 26° |
| 2026-04-30 08:02 | 53.30562 | -113.58446 | 2344 ft | 4 kts | 26° |
| 2026-04-30 08:03 | 53.30514 | -113.58482 | 2344 ft | 4 kts | 12° |
| 2026-04-30 08:03 | 53.30471 | -113.58461 | 2344 ft | 0 kts | 315° |
| 2026-04-30 08:06 | 53.30474 | -113.58466 | 2344 ft | 2 kts | 315° |
| 2026-04-30 08:06 | 53.30495 | -113.58500 | 2344 ft | 7 kts | 315° |
| 2026-04-30 08:07 | 53.30496 | -113.58502 | 2344 ft | 7 kts | 315° |
| 2026-04-30 08:07 | 53.30500 | -113.58509 | 2344 ft | 8 kts | 315° |
| 2026-04-30 08:07 | 53.30557 | -113.58604 | 2344 ft | 15 kts | 315° |
| 2026-04-30 08:07 | 53.30600 | -113.58721 | 2344 ft | 11 kts | 274° |
| 2026-04-30 08:08 | 53.30611 | -113.58840 | 2344 ft | 10 kts | 303° |
| 2026-04-30 08:08 | 53.30671 | -113.58868 | 2344 ft | 10 kts | 358° |
| 2026-04-30 08:08 | 53.30739 | -113.58880 | 2344 ft | 10 kts | 344° |
| 2026-04-30 08:08 | 53.30749 | -113.58961 | 2344 ft | 8 kts | 262° |
| 2026-04-30 08:09 | 53.30745 | -113.59056 | 2344 ft | 8 kts | 265° |
| 2026-04-30 08:09 | 53.30740 | -113.59157 | 2344 ft | 9 kts | 264° |
| 2026-04-30 08:09 | 53.30736 | -113.59264 | 2344 ft | 10 kts | 275° |
| 2026-04-30 08:09 | 53.30735 | -113.59370 | 2344 ft | 9 kts | 239° |
| 2026-04-30 08:10 | 53.30672 | -113.59455 | 2344 ft | 11 kts | 216° |
| 2026-04-30 08:10 | 53.30608 | -113.59519 | 2343 ft | 8 kts | 178° |
| 2026-04-30 08:10 | 53.30552 | -113.59441 | 2342 ft | 14 kts | 135° |
| 2026-04-30 08:10 | 53.30395 | -113.59179 | 2347 ft | 63 kts | 135° |
| 2026-04-30 08:11 | 53.29926 | -113.58395 | 2355 ft | 126 kts | 135° |
| 2026-04-30 08:11 | 53.29181 | -113.57148 | 2393 ft | 175 kts | 134° |
| 2026-04-30 08:11 | 53.28290 | -113.55609 | 2933 ft | 185 kts | 135° |
| 2026-04-30 08:11 | 53.27372 | -113.54010 | 3706 ft | 194 kts | 136° |
| 2026-04-30 08:12 | 53.26413 | -113.52338 | 4368 ft | 202 kts | 136° |
| 2026-04-30 08:12 | 53.25427 | -113.50606 | 4972 ft | 210 kts | 135° |
| 2026-04-30 08:12 | 53.24393 | -113.48806 | 5436 ft | 225 kts | 136° |
| 2026-04-30 08:12 | 53.23199 | -113.46907 | 5712 ft | 247 kts | 137° |
| 2026-04-30 08:13 | 53.21904 | -113.44865 | 6227 ft | 259 kts | 136° |
| 2026-04-30 08:13 | 53.20594 | -113.42773 | 7044 ft | 265 kts | 135° |
| 2026-04-30 08:13 | 53.19235 | -113.40552 | 7512 ft | 282 kts | 134° |
| 2026-04-30 08:13 | 53.17821 | -113.38222 | 8059 ft | 293 kts | 134° |
| 2026-04-30 08:14 | 53.16376 | -113.35819 | 8875 ft | 296 kts | 132° |
| 2026-04-30 08:14 | 53.14931 | -113.33309 | 9563 ft | 303 kts | 131° |
| 2026-04-30 08:14 | 53.13473 | -113.30752 | 10315 ft | 308 kts | 131° |
| 2026-04-30 08:14 | 53.11956 | -113.28093 | 10660 ft | 326 kts | 131° |
| 2026-04-30 08:15 | 53.10344 | -113.25268 | 10905 ft | 346 kts | 131° |
| 2026-04-30 08:15 | 53.08640 | -113.22281 | 11125 ft | 366 kts | 131° |
| 2026-04-30 08:15 | 53.06845 | -113.19136 | 11394 ft | 382 kts | 131° |
| 2026-04-30 08:15 | 53.04996 | -113.15895 | 11883 ft | 389 kts | 131° |
| 2026-04-30 08:16 | 53.03134 | -113.12629 | 12593 ft | 391 kts | 131° |
| 2026-04-30 08:16 | 53.01260 | -113.09342 | 13224 ft | 394 kts | 131° |
| 2026-04-30 08:16 | 52.99369 | -113.06025 | 13874 ft | 397 kts | 130° |
| 2026-04-30 08:16 | 52.97465 | -113.02667 | 13953 ft | 399 kts | 130° |
| 2026-04-30 08:17 | 52.95566 | -112.99321 | 13952 ft | 398 kts | 130° |
| 2026-04-30 08:17 | 52.93794 | -112.95800 | 14122 ft | 395 kts | 115° |
| 2026-04-30 08:17 | 52.92950 | -112.91623 | 14721 ft | 386 kts | 93° |
| 2026-04-30 08:17 | 52.92896 | -112.87180 | 15103 ft | 388 kts | 85° |
| 2026-04-30 08:18 | 52.92912 | -112.82690 | 15680 ft | 390 kts | 85° |
| 2026-04-30 08:18 | 52.92911 | -112.78173 | 16147 ft | 394 kts | 85° |
| 2026-04-30 08:18 | 52.92899 | -112.73604 | 16680 ft | 396 kts | 85° |
| 2026-04-30 08:18 | 52.92883 | -112.69018 | 17180 ft | 399 kts | 85° |
| 2026-04-30 08:19 | 52.92865 | -112.64407 | 17683 ft | 401 kts | 85° |
| 2026-04-30 08:19 | 52.92844 | -112.59766 | 18166 ft | 404 kts | 85° |
| 2026-04-30 08:19 | 52.92821 | -112.55098 | 18642 ft | 406 kts | 85° |
| 2026-04-30 08:19 | 52.92797 | -112.50396 | 19046 ft | 409 kts | 85° |
| 2026-04-30 08:20 | 52.92772 | -112.45718 | 19724 ft | 402 kts | 84° |
| 2026-04-30 08:20 | 52.92752 | -112.41142 | 20544 ft | 393 kts | 84° |
| 2026-04-30 08:20 | 52.92728 | -112.36608 | 21027 ft | 395 kts | 84° |
| 2026-04-30 08:20 | 52.92697 | -112.32047 | 21417 ft | 398 kts | 84° |
| 2026-04-30 08:21 | 52.92665 | -112.27516 | 21872 ft | 400 kts | 84° |
| 2026-04-30 08:21 | 52.92630 | -112.22891 | 22299 ft | 402 kts | 84° |
| 2026-04-30 08:21 | 52.92593 | -112.18251 | 22706 ft | 404 kts | 84° |
| 2026-04-30 08:21 | 52.92554 | -112.13576 | 23117 ft | 407 kts | 84° |
| 2026-04-30 08:22 | 52.92512 | -112.08874 | 23566 ft | 408 kts | 84° |
| 2026-04-30 08:22 | 52.92470 | -112.04173 | 24005 ft | 409 kts | 84° |
| 2026-04-30 08:22 | 52.92424 | -111.99447 | 24350 ft | 411 kts | 84° |
| 2026-04-30 08:22 | 52.92378 | -111.94708 | 24731 ft | 412 kts | 84° |
| 2026-04-30 08:23 | 52.92329 | -111.89948 | 25094 ft | 414 kts | 84° |
| 2026-04-30 08:23 | 52.92278 | -111.85168 | 25462 ft | 415 kts | 84° |
| 2026-04-30 08:23 | 52.92225 | -111.80377 | 25825 ft | 416 kts | 84° |
| 2026-04-30 08:23 | 52.92170 | -111.75580 | 26176 ft | 418 kts | 84° |
| 2026-04-30 08:24 | 52.92113 | -111.70763 | 26611 ft | 418 kts | 83° |
| 2026-04-30 08:24 | 52.92054 | -111.65947 | 26991 ft | 419 kts | 83° |
| 2026-04-30 08:24 | 52.91993 | -111.61118 | 27307 ft | 420 kts | 83° |
| 2026-04-30 08:24 | 52.91930 | -111.56261 | 27647 ft | 422 kts | 83° |
| 2026-04-30 08:25 | 52.91865 | -111.51399 | 27961 ft | 423 kts | 83° |
| 2026-04-30 08:25 | 52.91797 | -111.46511 | 28276 ft | 425 kts | 83° |
| 2026-04-30 08:25 | 52.91735 | -111.41682 | 28590 ft | 425 kts | 82° |
| 2026-04-30 08:25 | 52.92127 | -111.36925 | 28845 ft | 412 kts | 66° |
| 2026-04-30 08:26 | 52.93084 | -111.32474 | 29062 ft | 411 kts | 63° |
| 2026-04-30 08:26 | 52.94130 | -111.28048 | 29325 ft | 412 kts | 62° |
| 2026-04-30 08:26 | 52.95208 | -111.23640 | 29634 ft | 413 kts | 62° |
| 2026-04-30 08:26 | 52.96303 | -111.19238 | 29971 ft | 413 kts | 61° |
| 2026-04-30 08:27 | 52.97408 | -111.14842 | 30353 ft | 412 kts | 61° |
| 2026-04-30 08:27 | 52.98514 | -111.10460 | 30713 ft | 411 kts | 60° |
| 2026-04-30 08:27 | 52.99616 | -111.06093 | 31015 ft | 410 kts | 60° |
| 2026-04-30 08:27 | 53.00716 | -111.01728 | 31313 ft | 410 kts | 60° |
| 2026-04-30 08:28 | 53.01814 | -110.97364 | 31591 ft | 409 kts | 61° |
| 2026-04-30 08:28 | 53.02909 | -110.93003 | 31875 ft | 409 kts | 61° |
| 2026-04-30 08:28 | 53.03633 | -110.90115 | 32060 ft | 409 kts | 61° |
| 2026-04-30 08:28 | 53.05093 | -110.84281 | 32433 ft | 408 kts | 61° |
| 2026-04-30 08:29 | 53.06181 | -110.79921 | 32715 ft | 408 kts | 61° |
| 2026-04-30 08:29 | 53.06900 | -110.77035 | 32908 ft | 408 kts | 60° |
| 2026-04-30 08:29 | 53.07985 | -110.72677 | 33199 ft | 407 kts | 60° |
| 2026-04-30 08:29 | 53.09420 | -110.66895 | 33305 ft | 408 kts | 60° |
| 2026-04-30 08:30 | 53.10498 | -110.62541 | 33285 ft | 406 kts | 60° |
| 2026-04-30 08:30 | 53.12644 | -110.53852 | 33286 ft | 406 kts | 60° |
| 2026-04-30 08:31 | 53.14438 | -110.46560 | 33277 ft | 406 kts | 60° |
| 2026-04-30 08:31 | 53.16576 | -110.37840 | 33260 ft | 406 kts | 60° |
| 2026-04-30 08:32 | 53.18708 | -110.29107 | 33249 ft | 407 kts | 61° |
| 2026-04-30 08:32 | 53.20804 | -110.20491 | 33236 ft | 406 kts | 61° |
| 2026-04-30 08:33 | 53.22922 | -110.11748 | 33230 ft | 407 kts | 61° |
| 2026-04-30 08:33 | 53.25036 | -110.02983 | 33229 ft | 406 kts | 61° |
| 2026-04-30 08:34 | 53.27142 | -109.94219 | 33232 ft | 407 kts | 61° |
| 2026-04-30 08:34 | 53.29241 | -109.85448 | 33278 ft | 407 kts | 61° |
| 2026-04-30 08:35 | 53.31340 | -109.76645 | 33254 ft | 408 kts | 61° |
| 2026-04-30 08:35 | 53.33437 | -109.67812 | 33288 ft | 408 kts | 61° |
| 2026-04-30 08:36 | 53.35524 | -109.58984 | 33299 ft | 408 kts | 61° |
| 2026-04-30 08:36 | 53.37608 | -109.50129 | 33295 ft | 408 kts | 61° |
| 2026-04-30 08:37 | 53.39683 | -109.41280 | 33298 ft | 408 kts | 61° |
| 2026-04-30 08:37 | 53.41758 | -109.32395 | 33291 ft | 411 kts | 61° |
| 2026-04-30 08:38 | 53.43825 | -109.23508 | 33301 ft | 411 kts | 61° |
| 2026-04-30 08:38 | 53.45895 | -109.14569 | 33297 ft | 411 kts | 62° |
| 2026-04-30 08:39 | 53.47957 | -109.05627 | 33289 ft | 410 kts | 61° |
| 2026-04-30 08:39 | 53.50007 | -108.96700 | 33287 ft | 409 kts | 61° |
| 2026-04-30 08:40 | 53.52053 | -108.87751 | 33291 ft | 412 kts | 61° |
| 2026-04-30 08:40 | 53.54103 | -108.78746 | 33293 ft | 413 kts | 62° |
| 2026-04-30 08:41 | 53.56148 | -108.69727 | 33284 ft | 413 kts | 62° |
| 2026-04-30 08:41 | 53.58190 | -108.60684 | 33285 ft | 413 kts | 62° |
| 2026-04-30 08:42 | 53.60221 | -108.51645 | 33281 ft | 413 kts | 62° |
| 2026-04-30 08:42 | 53.62237 | -108.42638 | 33296 ft | 415 kts | 62° |
| 2026-04-30 08:43 | 53.64280 | -108.33472 | 33284 ft | 418 kts | 62° |
| 2026-04-30 08:43 | 53.66316 | -108.24295 | 33276 ft | 418 kts | 62° |
| 2026-04-30 08:44 | 53.68345 | -108.15110 | 33277 ft | 418 kts | 62° |
| 2026-04-30 08:44 | 53.70367 | -108.05916 | 33279 ft | 418 kts | 62° |
| 2026-04-30 08:45 | 53.72382 | -107.96712 | 33309 ft | 419 kts | 63° |
| 2026-04-30 08:45 | 53.74411 | -107.87401 | 33284 ft | 423 kts | 63° |
| 2026-04-30 08:46 | 53.76437 | -107.78064 | 33262 ft | 423 kts | 63° |
| 2026-04-30 08:46 | 53.78454 | -107.68722 | 33264 ft | 423 kts | 63° |
| 2026-04-30 08:47 | 53.80468 | -107.59356 | 33268 ft | 423 kts | 63° |
| 2026-04-30 08:47 | 53.82471 | -107.49996 | 33321 ft | 423 kts | 63° |
| 2026-04-30 08:48 | 53.84480 | -107.40567 | 33269 ft | 428 kts | 64° |
| 2026-04-30 08:48 | 53.86492 | -107.31073 | 33266 ft | 428 kts | 64° |
| 2026-04-30 08:49 | 53.88494 | -107.21589 | 33265 ft | 428 kts | 64° |
| 2026-04-30 08:49 | 53.90488 | -107.12094 | 33261 ft | 428 kts | 64° |
| 2026-04-30 08:50 | 53.92479 | -107.02573 | 33296 ft | 428 kts | 64° |
| 2026-04-30 08:50 | 53.94463 | -106.93039 | 33260 ft | 432 kts | 64° |
| 2026-04-30 08:51 | 53.96463 | -106.83382 | 33257 ft | 432 kts | 64° |
| 2026-04-30 08:51 | 53.98450 | -106.73735 | 33254 ft | 432 kts | 65° |
| 2026-04-30 08:52 | 54.00421 | -106.64124 | 33258 ft | 432 kts | 65° |
| 2026-04-30 08:52 | 54.02398 | -106.54441 | 33256 ft | 432 kts | 65° |
| 2026-04-30 08:53 | 54.04362 | -106.44771 | 33256 ft | 436 kts | 65° |
| 2026-04-30 08:53 | 54.06335 | -106.35004 | 33264 ft | 436 kts | 65° |
| 2026-04-30 08:54 | 54.08304 | -106.25213 | 33264 ft | 436 kts | 65° |
| 2026-04-30 08:54 | 54.10249 | -106.15493 | 33271 ft | 436 kts | 65° |
| 2026-04-30 08:55 | 54.12202 | -106.05683 | 33268 ft | 436 kts | 65° |
| 2026-04-30 08:55 | 54.14154 | -105.95828 | 33268 ft | 441 kts | 66° |
| 2026-04-30 08:56 | 54.16112 | -105.85897 | 33274 ft | 441 kts | 66° |
| 2026-04-30 08:56 | 54.18050 | -105.76011 | 33277 ft | 441 kts | 66° |
| 2026-04-30 08:57 | 54.19994 | -105.66048 | 33278 ft | 441 kts | 66° |
| 2026-04-30 08:57 | 54.21913 | -105.56158 | 33276 ft | 441 kts | 66° |
| 2026-04-30 08:58 | 54.23837 | -105.46192 | 33278 ft | 441 kts | 66° |
| 2026-04-30 08:58 | 54.25753 | -105.36215 | 33274 ft | 441 kts | 66° |
| 2026-04-30 08:59 | 54.27665 | -105.26212 | 33279 ft | 441 kts | 66° |
| 2026-04-30 08:59 | 54.29554 | -105.16268 | 33274 ft | 441 kts | 66° |
| 2026-04-30 09:00 | 54.31446 | -105.06266 | 33303 ft | 441 kts | 67° |
| 2026-04-30 09:00 | 54.33329 | -104.96249 | 33279 ft | 445 kts | 67° |
| 2026-04-30 09:01 | 54.35222 | -104.86131 | 33276 ft | 445 kts | 67° |
| 2026-04-30 09:01 | 54.37103 | -104.76021 | 33272 ft | 445 kts | 67° |
| 2026-04-30 09:02 | 54.39906 | -104.60851 | 33279 ft | 445 kts | 67° |
| 2026-04-30 09:02 | 54.41766 | -104.50718 | 33276 ft | 447 kts | 68° |
| 2026-04-30 09:03 | 54.43626 | -104.40524 | 33280 ft | 448 kts | 68° |
| 2026-04-30 09:03 | 54.45483 | -104.30299 | 33285 ft | 448 kts | 68° |
| 2026-04-30 09:04 | 54.47327 | -104.20081 | 33274 ft | 447 kts | 68° |
| 2026-04-30 09:04 | 54.49162 | -104.09857 | 33276 ft | 448 kts | 68° |
| 2026-04-30 09:05 | 54.50997 | -103.99581 | 33288 ft | 449 kts | 69° |
| 2026-04-30 09:05 | 54.52807 | -103.89380 | 33283 ft | 449 kts | 69° |
| 2026-04-30 09:06 | 54.54622 | -103.79099 | 33274 ft | 449 kts | 69° |
| 2026-04-30 09:06 | 54.56428 | -103.68809 | 33272 ft | 449 kts | 69° |
| 2026-04-30 09:07 | 54.58228 | -103.58492 | 33278 ft | 449 kts | 69° |
| 2026-04-30 09:07 | 54.60017 | -103.48177 | 33282 ft | 449 kts | 69° |
| 2026-04-30 09:08 | 54.61799 | -103.37847 | 33274 ft | 450 kts | 69° |
| 2026-04-30 09:08 | 54.63576 | -103.27486 | 33273 ft | 450 kts | 69° |
| 2026-04-30 09:09 | 54.65341 | -103.17134 | 33273 ft | 450 kts | 70° |
| 2026-04-30 09:09 | 54.67097 | -103.06772 | 33272 ft | 450 kts | 70° |
| 2026-04-30 09:10 | 54.68843 | -102.96405 | 33283 ft | 449 kts | 70° |
| 2026-04-30 09:10 | 54.70582 | -102.86021 | 33271 ft | 449 kts | 70° |
| 2026-04-30 09:11 | 54.72311 | -102.75641 | 33278 ft | 449 kts | 70° |
| 2026-04-30 09:11 | 54.74030 | -102.65252 | 33277 ft | 449 kts | 70° |
| 2026-04-30 09:12 | 54.75732 | -102.54903 | 33281 ft | 450 kts | 70° |
| 2026-04-30 09:12 | 54.77433 | -102.44502 | 33268 ft | 448 kts | 70° |
| 2026-04-30 09:13 | 54.79132 | -102.34047 | 33275 ft | 448 kts | 70° |
| 2026-04-30 09:13 | 54.80811 | -102.23650 | 33275 ft | 448 kts | 70° |
| 2026-04-30 09:14 | 54.82474 | -102.13293 | 33281 ft | 448 kts | 71° |
| 2026-04-30 09:14 | 54.84138 | -102.02874 | 33291 ft | 448 kts | 71° |
| 2026-04-30 09:15 | 54.85796 | -101.92440 | 33284 ft | 447 kts | 71° |
| 2026-04-30 09:15 | 54.87440 | -101.82030 | 33284 ft | 447 kts | 71° |
| 2026-04-30 09:16 | 54.89077 | -101.71609 | 33285 ft | 448 kts | 71° |
| 2026-04-30 09:16 | 54.90433 | -101.62929 | 33282 ft | 448 kts | 71° |
| 2026-04-30 09:17 | 54.92058 | -101.52472 | 33281 ft | 448 kts | 71° |
| 2026-04-30 09:17 | 54.93672 | -101.42018 | 33282 ft | 446 kts | 71° |
| 2026-04-30 09:18 | 54.95274 | -101.31584 | 33285 ft | 446 kts | 71° |
| 2026-04-30 09:18 | 54.96856 | -101.21215 | 33280 ft | 446 kts | 71° |
| 2026-04-30 09:19 | 54.98443 | -101.10750 | 33277 ft | 446 kts | 71° |
| 2026-04-30 09:19 | 55.00067 | -101.00323 | 33277 ft | 443 kts | 65° |
| 2026-04-30 09:20 | 55.02699 | -100.90751 | 33254 ft | 440 kts | 60° |
| 2026-04-30 09:20 | 55.05421 | -100.81195 | 33279 ft | 441 kts | 60° |
| 2026-04-30 09:21 | 55.08153 | -100.71645 | 33283 ft | 442 kts | 60° |
| 2026-04-30 09:21 | 55.10899 | -100.62018 | 33281 ft | 442 kts | 60° |
| 2026-04-30 09:22 | 55.13632 | -100.52394 | 33281 ft | 442 kts | 60° |
| 2026-04-30 09:22 | 55.16341 | -100.42817 | 33282 ft | 442 kts | 60° |
| 2026-04-30 09:23 | 55.19060 | -100.33163 | 33284 ft | 442 kts | 60° |
| 2026-04-30 09:23 | 55.21776 | -100.23481 | 33285 ft | 442 kts | 60° |
| 2026-04-30 09:24 | 55.24462 | -100.13865 | 33284 ft | 442 kts | 60° |
| 2026-04-30 09:24 | 55.27164 | -100.04152 | 33282 ft | 442 kts | 60° |
| 2026-04-30 09:25 | 55.29853 | -99.94440 | 33308 ft | 442 kts | 61° |
| 2026-04-30 09:25 | 55.32515 | -99.84792 | 33284 ft | 440 kts | 61° |
| 2026-04-30 09:26 | 55.35181 | -99.75086 | 33285 ft | 441 kts | 61° |
| 2026-04-30 09:26 | 55.37845 | -99.65346 | 33284 ft | 441 kts | 61° |
| 2026-04-30 09:27 | 55.40483 | -99.55658 | 33282 ft | 441 kts | 61° |
| 2026-04-30 09:27 | 55.43132 | -99.45891 | 33297 ft | 443 kts | 62° |
| 2026-04-30 09:28 | 55.45775 | -99.36102 | 33275 ft | 442 kts | 62° |
| 2026-04-30 09:28 | 55.48411 | -99.26297 | 33282 ft | 442 kts | 62° |
| 2026-04-30 09:29 | 55.51036 | -99.16492 | 33281 ft | 442 kts | 62° |
| 2026-04-30 09:29 | 55.53654 | -99.06671 | 33277 ft | 442 kts | 62° |
| 2026-04-30 09:30 | 55.56264 | -98.96837 | 33274 ft | 442 kts | 62° |
| 2026-04-30 09:30 | 55.58865 | -98.86994 | 33277 ft | 442 kts | 62° |
| 2026-04-30 09:31 | 55.61460 | -98.77130 | 33278 ft | 442 kts | 62° |
| 2026-04-30 09:31 | 55.64044 | -98.67265 | 33276 ft | 442 kts | 62° |
| 2026-04-30 09:32 | 55.66625 | -98.57370 | 33275 ft | 442 kts | 62° |
| 2026-04-30 09:32 | 55.69178 | -98.47540 | 33275 ft | 442 kts | 62° |
| 2026-04-30 09:33 | 55.71739 | -98.37631 | 33271 ft | 442 kts | 63° |
| 2026-04-30 09:33 | 55.74296 | -98.27697 | 33258 ft | 442 kts | 63° |
| 2026-04-30 09:34 | 55.76841 | -98.17763 | 33246 ft | 442 kts | 63° |
| 2026-04-30 09:34 | 55.79379 | -98.07816 | 33234 ft | 442 kts | 63° |
| 2026-04-30 09:35 | 55.81912 | -97.97840 | 33228 ft | 442 kts | 63° |
| 2026-04-30 09:35 | 55.84437 | -97.87850 | 33249 ft | 442 kts | 63° |
| 2026-04-30 09:36 | 55.86941 | -97.77905 | 33232 ft | 443 kts | 63° |
| 2026-04-30 09:36 | 55.89450 | -97.67890 | 33230 ft | 443 kts | 63° |
| 2026-04-30 09:37 | 55.91955 | -97.57846 | 33246 ft | 443 kts | 64° |
| 2026-04-30 09:37 | 55.94448 | -97.47805 | 33274 ft | 443 kts | 64° |
| 2026-04-30 09:38 | 55.96953 | -97.37666 | 33281 ft | 443 kts | 64° |
| 2026-04-30 09:38 | 55.99419 | -97.27643 | 33274 ft | 445 kts | 64° |
| 2026-04-30 09:39 | 56.01898 | -97.17522 | 33267 ft | 445 kts | 64° |
| 2026-04-30 09:39 | 56.04367 | -97.07391 | 33278 ft | 445 kts | 64° |
| 2026-04-30 09:40 | 56.06829 | -96.97243 | 33280 ft | 445 kts | 64° |
| 2026-04-30 09:40 | 56.09287 | -96.87064 | 33270 ft | 445 kts | 64° |
| 2026-04-30 09:41 | 56.11737 | -96.76871 | 33282 ft | 447 kts | 65° |
| 2026-04-30 09:41 | 56.14185 | -96.66640 | 33269 ft | 446 kts | 65° |
| 2026-04-30 09:42 | 56.16623 | -96.56399 | 33271 ft | 446 kts | 65° |
| 2026-04-30 09:42 | 56.19049 | -96.46161 | 33270 ft | 446 kts | 65° |
| 2026-04-30 09:43 | 56.21466 | -96.35910 | 33263 ft | 446 kts | 65° |
| 2026-04-30 09:43 | 56.23877 | -96.25640 | 33274 ft | 447 kts | 65° |
| 2026-04-30 09:44 | 56.26292 | -96.15301 | 33265 ft | 449 kts | 65° |
| 2026-04-30 09:44 | 56.28704 | -96.04925 | 33266 ft | 449 kts | 65° |
| 2026-04-30 09:45 | 56.31103 | -95.94554 | 33263 ft | 449 kts | 65° |
| 2026-04-30 09:45 | 56.33493 | -95.84172 | 33263 ft | 449 kts | 65° |
| 2026-04-30 09:46 | 56.35879 | -95.73758 | 33274 ft | 449 kts | 66° |
| 2026-04-30 09:46 | 56.38262 | -95.63302 | 33266 ft | 452 kts | 66° |
| 2026-04-30 09:47 | 56.40645 | -95.52800 | 33262 ft | 452 kts | 66° |
| 2026-04-30 09:47 | 56.43017 | -95.42288 | 33263 ft | 452 kts | 66° |
| 2026-04-30 09:48 | 56.45385 | -95.31744 | 33264 ft | 452 kts | 66° |
| 2026-04-30 09:48 | 56.47738 | -95.21213 | 33254 ft | 451 kts | 66° |
| 2026-04-30 09:49 | 56.50075 | -95.10703 | 33251 ft | 450 kts | 66° |
| 2026-04-30 09:49 | 56.52403 | -95.00179 | 33250 ft | 450 kts | 66° |
| 2026-04-30 09:50 | 56.54726 | -94.89624 | 33248 ft | 450 kts | 66° |
| 2026-04-30 09:50 | 56.57036 | -94.79077 | 33248 ft | 450 kts | 66° |
| 2026-04-30 09:51 | 56.59337 | -94.68515 | 33260 ft | 450 kts | 66° |
| 2026-04-30 09:51 | 56.61632 | -94.57927 | 33263 ft | 452 kts | 67° |
| 2026-04-30 09:52 | 56.63918 | -94.47326 | 33264 ft | 453 kts | 67° |
| 2026-04-30 09:52 | 56.66210 | -94.36640 | 33268 ft | 453 kts | 67° |
| 2026-04-30 09:53 | 56.68490 | -94.25958 | 33262 ft | 453 kts | 67° |
| 2026-04-30 09:53 | 56.70764 | -94.15248 | 33263 ft | 453 kts | 67° |
| 2026-04-30 09:54 | 56.73025 | -94.04539 | 33273 ft | 454 kts | 68° |
| 2026-04-30 09:54 | 56.75290 | -93.93755 | 33273 ft | 457 kts | 68° |
| 2026-04-30 09:55 | 56.77554 | -93.82922 | 33270 ft | 457 kts | 68° |
| 2026-04-30 09:55 | 56.79803 | -93.72101 | 33263 ft | 455 kts | 68° |
| 2026-04-30 09:56 | 56.82035 | -93.61304 | 33273 ft | 455 kts | 68° |
| 2026-04-30 09:56 | 56.84247 | -93.50547 | 33284 ft | 455 kts | 68° |
| 2026-04-30 09:57 | 56.86470 | -93.39677 | 33265 ft | 458 kts | 68° |
| 2026-04-30 09:57 | 56.88690 | -93.28760 | 33261 ft | 458 kts | 68° |
| 2026-04-30 09:58 | 56.90915 | -93.17760 | 33262 ft | 458 kts | 68° |
| 2026-04-30 09:58 | 56.93116 | -93.06819 | 33266 ft | 458 kts | 69° |
| 2026-04-30 09:59 | 56.97484 | -92.84928 | 33263 ft | 461 kts | 69° |
| 2026-04-30 10:00 | 57.00765 | -92.68316 | 33266 ft | 462 kts | 69° |
| 2026-04-30 10:01 | 57.04025 | -92.51675 | 33258 ft | 462 kts | 69° |
| 2026-04-30 10:02 | 57.06912 | -92.36821 | 33257 ft | 462 kts | 69° |
| 2026-04-30 10:02 | 57.09062 | -92.25679 | 33271 ft | 464 kts | 70° |
| 2026-04-30 10:03 | 57.11197 | -92.14558 | 33257 ft | 463 kts | 70° |
| 2026-04-30 10:03 | 57.13344 | -92.03300 | 33261 ft | 463 kts | 70° |
| 2026-04-30 10:04 | 57.15472 | -91.92084 | 33258 ft | 463 kts | 70° |
| 2026-04-30 10:04 | 57.17572 | -91.80946 | 33258 ft | 463 kts | 70° |
| 2026-04-30 10:05 | 57.19679 | -91.69706 | 33259 ft | 465 kts | 70° |
| 2026-04-30 10:05 | 57.21784 | -91.58411 | 33258 ft | 466 kts | 70° |
| 2026-04-30 10:06 | 57.23882 | -91.47086 | 33256 ft | 466 kts | 70° |
| 2026-04-30 10:06 | 57.25967 | -91.35766 | 33258 ft | 466 kts | 70° |
| 2026-04-30 10:07 | 57.28041 | -91.24433 | 33255 ft | 466 kts | 70° |
| 2026-04-30 10:07 | 57.30117 | -91.13027 | 33249 ft | 466 kts | 71° |
| 2026-04-30 10:08 | 57.32169 | -91.01703 | 33251 ft | 467 kts | 71° |
| 2026-04-30 10:08 | 57.34225 | -90.90291 | 33248 ft | 467 kts | 71° |
| 2026-04-30 10:09 | 57.36275 | -90.78847 | 33249 ft | 467 kts | 71° |
| 2026-04-30 10:09 | 57.38312 | -90.67410 | 33255 ft | 467 kts | 71° |
| 2026-04-30 10:10 | 57.40329 | -90.56014 | 33250 ft | 468 kts | 71° |
| 2026-04-30 10:10 | 57.42360 | -90.44475 | 33246 ft | 468 kts | 71° |
| 2026-04-30 10:11 | 57.44362 | -90.33036 | 33247 ft | 468 kts | 71° |
| 2026-04-30 10:11 | 57.46370 | -90.21489 | 33244 ft | 468 kts | 71° |
| 2026-04-30 10:12 | 57.48355 | -90.10006 | 33246 ft | 468 kts | 71° |
| 2026-04-30 10:12 | 57.50623 | -89.98674 | 33228 ft | 466 kts | 58° |
| 2026-04-30 10:13 | 57.54191 | -89.88596 | 33224 ft | 468 kts | 55° |
| 2026-04-30 10:13 | 57.57839 | -89.78547 | 33240 ft | 468 kts | 55° |
| 2026-04-30 10:14 | 57.61498 | -89.68503 | 33237 ft | 468 kts | 55° |
| 2026-04-30 10:14 | 57.66951 | -89.53463 | 33243 ft | 468 kts | 55° |
| 2026-04-30 10:15 | 57.70601 | -89.43344 | 33236 ft | 469 kts | 55° |
| 2026-04-30 10:15 | 57.74250 | -89.33185 | 33237 ft | 469 kts | 55° |
| 2026-04-30 10:16 | 57.77884 | -89.23022 | 33231 ft | 469 kts | 55° |
| 2026-04-30 10:17 | 57.83297 | -89.07806 | 33230 ft | 469 kts | 55° |
| 2026-04-30 10:17 | 57.88715 | -88.92479 | 33227 ft | 469 kts | 55° |
| 2026-04-30 10:18 | 57.92329 | -88.82201 | 33244 ft | 469 kts | 55° |
| 2026-04-30 10:19 | 57.97700 | -88.66843 | 33225 ft | 471 kts | 56° |
| 2026-04-30 10:19 | 58.01293 | -88.56516 | 33222 ft | 471 kts | 56° |
| 2026-04-30 10:20 | 58.04882 | -88.46152 | 33220 ft | 471 kts | 56° |
| 2026-04-30 10:20 | 58.10245 | -88.30582 | 33219 ft | 471 kts | 56° |
| 2026-04-30 10:21 | 58.13807 | -88.20183 | 33219 ft | 471 kts | 56° |
| 2026-04-30 10:21 | 58.17369 | -88.09740 | 33220 ft | 472 kts | 56° |
| 2026-04-30 10:22 | 58.20926 | -87.99264 | 33220 ft | 474 kts | 56° |
| 2026-04-30 10:22 | 58.24488 | -87.88727 | 33214 ft | 474 kts | 56° |
| 2026-04-30 10:23 | 58.28036 | -87.78186 | 33214 ft | 474 kts | 56° |
| 2026-04-30 10:23 | 58.31558 | -87.67677 | 33208 ft | 474 kts | 56° |
| 2026-04-30 10:24 | 58.35089 | -87.57092 | 33211 ft | 474 kts | 56° |
| 2026-04-30 10:24 | 58.38612 | -87.46484 | 33203 ft | 474 kts | 57° |
| 2026-04-30 10:25 | 58.42133 | -87.35834 | 33206 ft | 475 kts | 57° |
| 2026-04-30 10:25 | 58.45645 | -87.25163 | 33215 ft | 475 kts | 57° |
| 2026-04-30 10:26 | 58.49162 | -87.14427 | 33202 ft | 476 kts | 57° |
| 2026-04-30 10:26 | 58.52673 | -87.03662 | 33200 ft | 476 kts | 57° |
| 2026-04-30 10:27 | 58.56169 | -86.92895 | 33197 ft | 476 kts | 57° |
| 2026-04-30 10:27 | 58.59656 | -86.82102 | 33193 ft | 477 kts | 57° |
| 2026-04-30 10:28 | 58.63148 | -86.71249 | 33192 ft | 477 kts | 57° |
| 2026-04-30 10:28 | 58.66625 | -86.60391 | 33191 ft | 477 kts | 57° |
| 2026-04-30 10:29 | 58.70098 | -86.49494 | 33192 ft | 477 kts | 58° |
| 2026-04-30 10:29 | 58.73534 | -86.38664 | 33186 ft | 477 kts | 58° |
| 2026-04-30 10:30 | 58.76983 | -86.27741 | 33188 ft | 478 kts | 58° |
| 2026-04-30 10:30 | 58.80426 | -86.16785 | 33177 ft | 479 kts | 58° |
| 2026-04-30 10:31 | 58.83880 | -86.05747 | 33184 ft | 480 kts | 58° |
| 2026-04-30 10:31 | 58.87318 | -85.94705 | 33179 ft | 480 kts | 58° |
| 2026-04-30 10:32 | 58.90747 | -85.83640 | 33179 ft | 480 kts | 58° |
| 2026-04-30 10:32 | 58.94172 | -85.72535 | 33178 ft | 480 kts | 58° |
| 2026-04-30 10:33 | 58.97582 | -85.61428 | 33176 ft | 480 kts | 58° |
| 2026-04-30 10:33 | 59.00983 | -85.50292 | 33164 ft | 481 kts | 59° |
| 2026-04-30 10:34 | 59.04393 | -85.39077 | 33168 ft | 483 kts | 59° |
| 2026-04-30 10:34 | 59.07800 | -85.27816 | 33166 ft | 483 kts | 59° |
| 2026-04-30 10:35 | 59.11198 | -85.16531 | 33167 ft | 483 kts | 59° |
| 2026-04-30 10:35 | 59.14582 | -85.05240 | 33162 ft | 483 kts | 59° |
| 2026-04-30 10:36 | 59.17966 | -84.93890 | 33163 ft | 483 kts | 59° |
| 2026-04-30 10:36 | 59.21312 | -84.82611 | 33143 ft | 484 kts | 59° |
| 2026-04-30 10:37 | 59.24691 | -84.71170 | 33156 ft | 485 kts | 59° |
| 2026-04-30 10:37 | 59.28048 | -84.59744 | 33158 ft | 485 kts | 59° |
| 2026-04-30 10:38 | 59.31402 | -84.48271 | 33152 ft | 485 kts | 59° |
| 2026-04-30 10:38 | 59.34740 | -84.36796 | 33154 ft | 485 kts | 60° |
| 2026-04-30 10:39 | 59.38068 | -84.25297 | 33149 ft | 485 kts | 60° |
| 2026-04-30 10:39 | 59.41371 | -84.13831 | 33137 ft | 486 kts | 60° |
| 2026-04-30 10:40 | 59.44706 | -84.02192 | 33143 ft | 489 kts | 60° |
| 2026-04-30 10:40 | 59.48028 | -83.90540 | 33156 ft | 488 kts | 60° |
| 2026-04-30 10:41 | 59.51330 | -83.78900 | 33141 ft | 487 kts | 60° |
| 2026-04-30 10:41 | 59.54628 | -83.67215 | 33138 ft | 487 kts | 60° |
| 2026-04-30 10:42 | 59.57916 | -83.55506 | 33131 ft | 487 kts | 60° |
| 2026-04-30 10:42 | 59.61188 | -83.43788 | 33117 ft | 488 kts | 61° |
| 2026-04-30 10:43 | 59.64469 | -83.31985 | 33131 ft | 491 kts | 61° |
| 2026-04-30 10:43 | 59.67750 | -83.20118 | 33132 ft | 491 kts | 61° |
| 2026-04-30 10:44 | 59.70461 | -83.10265 | 33127 ft | 491 kts | 61° |
| 2026-04-30 10:44 | 59.73711 | -82.98395 | 33119 ft | 489 kts | 61° |
| 2026-04-30 10:45 | 59.76951 | -82.86501 | 33135 ft | 490 kts | 61° |
| 2026-04-30 10:45 | 59.80175 | -82.74602 | 33126 ft | 490 kts | 61° |
| 2026-04-30 10:46 | 59.83389 | -82.62677 | 33136 ft | 490 kts | 61° |
| 2026-04-30 10:46 | 59.86598 | -82.50708 | 33133 ft | 490 kts | 62° |
| 2026-04-30 10:47 | 59.89791 | -82.38737 | 33120 ft | 490 kts | 62° |
| 2026-04-30 10:47 | 59.92971 | -82.26746 | 33117 ft | 489 kts | 62° |
| 2026-04-30 10:48 | 59.96143 | -82.14728 | 33125 ft | 490 kts | 62° |
| 2026-04-30 10:48 | 59.99303 | -82.02684 | 33093 ft | 490 kts | 62° |
| 2026-04-30 10:49 | 60.02467 | -81.90565 | 33113 ft | 492 kts | 62° |
| 2026-04-30 10:49 | 60.05619 | -81.78425 | 33113 ft | 492 kts | 62° |
| 2026-04-30 10:50 | 60.08759 | -81.66263 | 33109 ft | 492 kts | 62° |
| 2026-04-30 10:50 | 60.11893 | -81.54059 | 33107 ft | 492 kts | 62° |
| 2026-04-30 10:51 | 60.14990 | -81.41933 | 33102 ft | 492 kts | 63° |
| 2026-04-30 10:51 | 60.18101 | -81.29686 | 33116 ft | 492 kts | 63° |
| 2026-04-30 10:52 | 60.21201 | -81.17411 | 33101 ft | 493 kts | 63° |
| 2026-04-30 10:52 | 60.24297 | -81.05091 | 33097 ft | 493 kts | 63° |
| 2026-04-30 10:53 | 60.27389 | -80.92732 | 33097 ft | 493 kts | 63° |
| 2026-04-30 10:53 | 60.30475 | -80.80330 | 33089 ft | 493 kts | 63° |
| 2026-04-30 10:54 | 60.33546 | -80.67927 | 33089 ft | 494 kts | 63° |
| 2026-04-30 10:54 | 60.36587 | -80.55581 | 33059 ft | 494 kts | 63° |
| 2026-04-30 10:55 | 60.39648 | -80.43083 | 33082 ft | 497 kts | 64° |
| 2026-04-30 10:55 | 60.42707 | -80.30530 | 33089 ft | 495 kts | 64° |
| 2026-04-30 10:56 | 60.45748 | -80.17980 | 33080 ft | 495 kts | 64° |
| 2026-04-30 10:56 | 60.48756 | -80.05502 | 33077 ft | 495 kts | 64° |
| 2026-04-30 10:57 | 60.51746 | -79.92843 | 33072 ft | 495 kts | 64° |
| 2026-04-30 10:57 | 60.54751 | -79.80235 | 33072 ft | 495 kts | 64° |
| 2026-04-30 10:58 | 60.57744 | -79.67664 | 33075 ft | 498 kts | 64° |
| 2026-04-30 10:58 | 60.60754 | -79.54950 | 33066 ft | 498 kts | 64° |
| 2026-04-30 10:59 | 60.63751 | -79.42218 | 33087 ft | 498 kts | 64° |
| 2026-04-30 10:59 | 60.66728 | -79.29492 | 33061 ft | 496 kts | 64° |
| 2026-04-30 11:00 | 60.69693 | -79.16745 | 33064 ft | 497 kts | 64° |
| 2026-04-30 11:00 | 60.72633 | -79.04031 | 33064 ft | 497 kts | 65° |
| 2026-04-30 11:01 | 60.75581 | -78.91204 | 33061 ft | 499 kts | 65° |
| 2026-04-30 11:01 | 60.78524 | -78.78326 | 33055 ft | 499 kts | 65° |
| 2026-04-30 11:02 | 60.81439 | -78.65490 | 33048 ft | 499 kts | 65° |
| 2026-04-30 11:02 | 60.84356 | -78.52566 | 33048 ft | 499 kts | 65° |
| 2026-04-30 11:03 | 60.87257 | -78.39636 | 33044 ft | 497 kts | 65° |
| 2026-04-30 11:04 | 60.91562 | -78.20302 | 33037 ft | 498 kts | 65° |
| 2026-04-30 11:04 | 60.94442 | -78.07271 | 33051 ft | 499 kts | 66° |
| 2026-04-30 11:05 | 60.97291 | -77.94299 | 33050 ft | 499 kts | 66° |
| 2026-04-30 11:05 | 61.00145 | -77.81219 | 33051 ft | 499 kts | 66° |
| 2026-04-30 11:06 | 61.02987 | -77.68115 | 33047 ft | 499 kts | 66° |
| 2026-04-30 11:06 | 61.05789 | -77.55118 | 33049 ft | 499 kts | 66° |
| 2026-04-30 11:07 | 61.08610 | -77.41944 | 33020 ft | 499 kts | 66° |
| 2026-04-30 11:07 | 61.11403 | -77.28825 | 33051 ft | 501 kts | 66° |
| 2026-04-30 11:08 | 61.14192 | -77.15635 | 33055 ft | 500 kts | 66° |
| 2026-04-30 11:08 | 61.16979 | -77.02377 | 33058 ft | 501 kts | 67° |
| 2026-04-30 11:09 | 61.19747 | -76.89119 | 33056 ft | 501 kts | 67° |
| 2026-04-30 11:09 | 61.22479 | -76.75951 | 33062 ft | 500 kts | 67° |
| 2026-04-30 11:10 | 61.25225 | -76.62627 | 33047 ft | 500 kts | 67° |
| 2026-04-30 11:10 | 61.27950 | -76.49320 | 33073 ft | 500 kts | 68° |
| 2026-04-30 11:11 | 61.30650 | -76.36051 | 33066 ft | 500 kts | 68° |
| 2026-04-30 11:11 | 61.33356 | -76.22663 | 33070 ft | 500 kts | 68° |
| 2026-04-30 11:12 | 61.36032 | -76.09339 | 33079 ft | 500 kts | 68° |
| 2026-04-30 11:12 | 61.38707 | -75.95929 | 33077 ft | 500 kts | 68° |
| 2026-04-30 11:13 | 61.41360 | -75.82540 | 33066 ft | 500 kts | 68° |
| 2026-04-30 11:13 | 61.44006 | -75.69100 | 33081 ft | 499 kts | 68° |
| 2026-04-30 11:14 | 61.46637 | -75.55642 | 33123 ft | 499 kts | 68° |
| 2026-04-30 11:14 | 61.49246 | -75.42210 | 33089 ft | 500 kts | 69° |
| 2026-04-30 11:15 | 61.51861 | -75.28653 | 33088 ft | 501 kts | 69° |
| 2026-04-30 11:15 | 61.54445 | -75.15164 | 33095 ft | 501 kts | 69° |
| 2026-04-30 11:16 | 61.57029 | -75.01585 | 33092 ft | 500 kts | 69° |
| 2026-04-30 11:16 | 61.59604 | -74.87959 | 33098 ft | 501 kts | 69° |
| 2026-04-30 11:17 | 61.62144 | -74.74423 | 33098 ft | 501 kts | 69° |
| 2026-04-30 11:17 | 61.64687 | -74.60777 | 33100 ft | 500 kts | 69° |
| 2026-04-30 11:18 | 61.67221 | -74.47085 | 33101 ft | 501 kts | 69° |
| 2026-04-30 11:18 | 61.70990 | -74.26542 | 33102 ft | 501 kts | 70° |
| 2026-04-30 11:19 | 61.73473 | -74.12885 | 33082 ft | 501 kts | 70° |
| 2026-04-30 11:19 | 61.75961 | -73.99102 | 33101 ft | 501 kts | 70° |
| 2026-04-30 11:20 | 61.78419 | -73.85390 | 33101 ft | 501 kts | 70° |
| 2026-04-30 11:20 | 61.80875 | -73.71589 | 33098 ft | 501 kts | 70° |
| 2026-04-30 11:21 | 61.83317 | -73.57765 | 33097 ft | 501 kts | 70° |
| 2026-04-30 11:21 | 61.85733 | -73.43992 | 33096 ft | 501 kts | 70° |
| 2026-04-30 11:22 | 61.88149 | -73.30122 | 33055 ft | 501 kts | 70° |
| 2026-04-30 11:22 | 61.90550 | -73.16223 | 33089 ft | 502 kts | 70° |
| 2026-04-30 11:23 | 61.92928 | -73.02366 | 33077 ft | 501 kts | 71° |
| 2026-04-30 11:24 | 61.96485 | -72.81438 | 33069 ft | 501 kts | 71° |
| 2026-04-30 11:24 | 61.98837 | -72.67464 | 33067 ft | 501 kts | 71° |
| 2026-04-30 11:25 | 62.02325 | -72.46557 | 33050 ft | 501 kts | 71° |
| 2026-04-30 11:26 | 62.06934 | -72.18549 | 33053 ft | 501 kts | 71° |
| 2026-04-30 11:26 | 62.09224 | -72.04475 | 33050 ft | 501 kts | 71° |
| 2026-04-30 11:27 | 62.11503 | -71.90356 | 33050 ft | 501 kts | 71° |
| 2026-04-30 11:27 | 62.13764 | -71.76239 | 33050 ft | 501 kts | 71° |
| 2026-04-30 11:28 | 62.16743 | -71.57472 | 33021 ft | 501 kts | 71° |
| 2026-04-30 11:29 | 62.18972 | -71.43298 | 33048 ft | 502 kts | 72° |
| 2026-04-30 11:29 | 62.22270 | -71.22111 | 33047 ft | 500 kts | 72° |
| 2026-04-30 11:30 | 62.25542 | -71.00841 | 33048 ft | 501 kts | 72° |
| 2026-04-30 11:31 | 62.27712 | -70.86593 | 33047 ft | 501 kts | 72° |
| 2026-04-30 11:31 | 62.29853 | -70.72419 | 33038 ft | 501 kts | 72° |
| 2026-04-30 11:32 | 62.31991 | -70.58146 | 33037 ft | 501 kts | 72° |
| 2026-04-30 11:32 | 62.34115 | -70.43843 | 33037 ft | 501 kts | 72° |
| 2026-04-30 11:33 | 62.37270 | -70.22384 | 33026 ft | 498 kts | 73° |
| 2026-04-30 11:33 | 62.39346 | -70.08113 | 33030 ft | 499 kts | 73° |
| 2026-04-30 11:34 | 62.41406 | -69.93835 | 33031 ft | 499 kts | 73° |
| 2026-04-30 11:34 | 62.43455 | -69.79514 | 33003 ft | 499 kts | 73° |
| 2026-04-30 11:35 | 62.45474 | -69.65272 | 33030 ft | 500 kts | 73° |
| 2026-04-30 11:35 | 62.47493 | -69.50915 | 33029 ft | 499 kts | 73° |
| 2026-04-30 11:36 | 62.49497 | -69.36537 | 33034 ft | 500 kts | 73° |
| 2026-04-30 11:36 | 62.51490 | -69.22112 | 33074 ft | 499 kts | 73° |
| 2026-04-30 11:37 | 62.53452 | -69.07787 | 33036 ft | 495 kts | 74° |
| 2026-04-30 11:37 | 62.55397 | -68.93464 | 33018 ft | 496 kts | 74° |
| 2026-04-30 11:38 | 62.57332 | -68.79083 | 33056 ft | 497 kts | 74° |
| 2026-04-30 11:38 | 62.59251 | -68.64694 | 33046 ft | 496 kts | 74° |
| 2026-04-30 11:39 | 62.61155 | -68.50289 | 33055 ft | 497 kts | 74° |
| 2026-04-30 11:39 | 62.63048 | -68.35842 | 33052 ft | 497 kts | 74° |
| 2026-04-30 11:40 | 62.64927 | -68.21405 | 33054 ft | 496 kts | 75° |
| 2026-04-30 11:40 | 62.66791 | -68.06967 | 33069 ft | 494 kts | 75° |
| 2026-04-30 11:41 | 62.68635 | -67.92560 | 33053 ft | 494 kts | 75° |
| 2026-04-30 11:41 | 62.70463 | -67.78149 | 33061 ft | 494 kts | 75° |
| 2026-04-30 11:42 | 62.72278 | -67.63723 | 33058 ft | 494 kts | 75° |
| 2026-04-30 11:42 | 62.74071 | -67.49345 | 33056 ft | 494 kts | 75° |
| 2026-04-30 11:43 | 62.75859 | -67.34883 | 33059 ft | 494 kts | 75° |
| 2026-04-30 11:43 | 62.77634 | -67.20405 | 33059 ft | 494 kts | 76° |
| 2026-04-30 11:44 | 62.79393 | -67.05912 | 33031 ft | 494 kts | 76° |
| 2026-04-30 11:44 | 62.80927 | -66.91258 | 33058 ft | 494 kts | 78° |
| 2026-04-30 11:45 | 62.82458 | -66.76614 | 33062 ft | 494 kts | 77° |
| 2026-04-30 11:45 | 62.84003 | -66.61969 | 33062 ft | 494 kts | 78° |
| 2026-04-30 11:46 | 62.85539 | -66.47286 | 33062 ft | 494 kts | 78° |
| 2026-04-30 11:46 | 62.87057 | -66.32612 | 33060 ft | 494 kts | 78° |
| 2026-04-30 11:47 | 62.88560 | -66.17924 | 33061 ft | 494 kts | 78° |
| 2026-04-30 11:47 | 62.90050 | -66.03190 | 33062 ft | 494 kts | 78° |
| 2026-04-30 11:48 | 62.91522 | -65.88469 | 33086 ft | 494 kts | 78° |
| 2026-04-30 11:48 | 62.92976 | -65.73769 | 33068 ft | 491 kts | 79° |
| 2026-04-30 11:49 | 62.94408 | -65.59118 | 33067 ft | 491 kts | 79° |
| 2026-04-30 11:49 | 62.95825 | -65.44449 | 33066 ft | 491 kts | 79° |
| 2026-04-30 11:50 | 62.97227 | -65.29765 | 33074 ft | 491 kts | 79° |
| 2026-04-30 11:50 | 62.98618 | -65.15029 | 33078 ft | 492 kts | 79° |
| 2026-04-30 11:51 | 62.99988 | -65.00330 | 33072 ft | 492 kts | 79° |
| 2026-04-30 11:51 | 63.01349 | -64.85550 | 33075 ft | 492 kts | 79° |
| 2026-04-30 11:52 | 63.02693 | -64.70780 | 33076 ft | 492 kts | 79° |
| 2026-04-30 11:52 | 63.04019 | -64.56021 | 33078 ft | 490 kts | 80° |
| 2026-04-30 11:53 | 63.05326 | -64.41285 | 33076 ft | 489 kts | 80° |
| 2026-04-30 11:53 | 63.06617 | -64.26548 | 33067 ft | 490 kts | 80° |
| 2026-04-30 11:54 | 63.07898 | -64.11738 | 33072 ft | 491 kts | 80° |
| 2026-04-30 11:54 | 63.09161 | -63.96945 | 33073 ft | 491 kts | 80° |
| 2026-04-30 11:55 | 63.10402 | -63.82211 | 33075 ft | 491 kts | 80° |
| 2026-04-30 11:55 | 63.11634 | -63.67392 | 33072 ft | 491 kts | 81° |
| 2026-04-30 11:56 | 63.12853 | -63.52535 | 33073 ft | 491 kts | 81° |
| 2026-04-30 11:56 | 63.14054 | -63.37700 | 33043 ft | 490 kts | 81° |
| 2026-04-30 11:57 | 63.15240 | -63.22833 | 33074 ft | 491 kts | 81° |
| 2026-04-30 11:57 | 63.16410 | -63.07960 | 33070 ft | 491 kts | 81° |
| 2026-04-30 11:58 | 63.17567 | -62.93054 | 33066 ft | 491 kts | 81° |
| 2026-04-30 11:58 | 63.18706 | -62.78160 | 33067 ft | 491 kts | 81° |
| 2026-04-30 11:59 | 63.19829 | -62.63258 | 33059 ft | 491 kts | 81° |
| 2026-04-30 11:59 | 63.20938 | -62.48321 | 33062 ft | 491 kts | 82° |
| 2026-04-30 12:00 | 63.22032 | -62.33370 | 33071 ft | 493 kts | 82° |
| 2026-04-30 12:00 | 63.23112 | -62.18378 | 33056 ft | 492 kts | 82° |
| 2026-04-30 12:01 | 63.24174 | -62.03410 | 33056 ft | 491 kts | 82° |
| 2026-04-30 12:01 | 63.25215 | -61.88506 | 33050 ft | 491 kts | 82° |
| 2026-04-30 12:02 | 63.26246 | -61.73520 | 33050 ft | 491 kts | 82° |
| 2026-04-30 12:02 | 63.27262 | -61.58499 | 33052 ft | 491 kts | 82° |
| 2026-04-30 12:03 | 63.28758 | -61.35931 | 33050 ft | 493 kts | 83° |
| 2026-04-30 12:04 | 63.29737 | -61.20848 | 33051 ft | 493 kts | 83° |
| 2026-04-30 12:04 | 63.30701 | -61.05735 | 33073 ft | 493 kts | 83° |
| 2026-04-30 12:05 | 63.31646 | -60.90654 | 33040 ft | 492 kts | 83° |
| 2026-04-30 12:05 | 63.32576 | -60.75562 | 33038 ft | 492 kts | 83° |
| 2026-04-30 12:06 | 63.33489 | -60.60480 | 33036 ft | 492 kts | 83° |
| 2026-04-30 12:06 | 63.34387 | -60.45362 | 33039 ft | 495 kts | 84° |
| 2026-04-30 12:07 | 63.35273 | -60.30171 | 33033 ft | 494 kts | 84° |
| 2026-04-30 12:07 | 63.36143 | -60.14959 | 33034 ft | 494 kts | 84° |
| 2026-04-30 12:08 | 63.36996 | -59.99763 | 33029 ft | 494 kts | 84° |
| 2026-04-30 12:08 | 63.37833 | -59.84554 | 33032 ft | 495 kts | 84° |
| 2026-04-30 12:09 | 63.38654 | -59.69323 | 33023 ft | 493 kts | 84° |
| 2026-04-30 12:09 | 63.39452 | -59.54229 | 33023 ft | 495 kts | 84° |
| 2026-04-30 12:10 | 63.40244 | -59.38924 | 33022 ft | 496 kts | 85° |
| 2026-04-30 12:10 | 63.41018 | -59.23634 | 33021 ft | 496 kts | 85° |
| 2026-04-30 12:11 | 63.41778 | -59.08310 | 33024 ft | 496 kts | 85° |
| 2026-04-30 12:11 | 63.42519 | -58.93011 | 33020 ft | 496 kts | 85° |
| 2026-04-30 12:12 | 63.43249 | -58.77706 | 33010 ft | 496 kts | 85° |
| 2026-04-30 12:12 | 63.43965 | -58.62390 | 32984 ft | 496 kts | 85° |
| 2026-04-30 12:13 | 63.44669 | -58.46995 | 33006 ft | 498 kts | 85° |
| 2026-04-30 12:13 | 63.45243 | -58.34190 | 33006 ft | 498 kts | 85° |
| 2026-04-30 12:14 | 63.45919 | -58.18789 | 33007 ft | 498 kts | 86° |
| 2026-04-30 12:14 | 63.46582 | -58.03359 | 33001 ft | 498 kts | 85° |
| 2026-04-30 12:15 | 63.47823 | -57.88122 | 33011 ft | 499 kts | 79° |
| 2026-04-30 12:15 | 63.49242 | -57.72932 | 33008 ft | 499 kts | 79° |
| 2026-04-30 12:16 | 63.50663 | -57.57713 | 32971 ft | 499 kts | 79° |
| 2026-04-30 12:16 | 63.52069 | -57.42489 | 33024 ft | 500 kts | 79° |
| 2026-04-30 12:17 | 63.54152 | -57.19565 | 32994 ft | 500 kts | 79° |
| 2026-04-30 12:17 | 63.55520 | -57.04265 | 33000 ft | 500 kts | 79° |
| 2026-04-30 12:18 | 63.56865 | -56.89031 | 32996 ft | 500 kts | 79° |
| 2026-04-30 12:18 | 63.58200 | -56.73708 | 32982 ft | 500 kts | 79° |
| 2026-04-30 12:19 | 63.59521 | -56.58345 | 32989 ft | 500 kts | 79° |
| 2026-04-30 12:19 | 63.60824 | -56.42995 | 32981 ft | 500 kts | 80° |
| 2026-04-30 12:20 | 63.62110 | -56.27629 | 32973 ft | 500 kts | 80° |
| 2026-04-30 12:20 | 63.63381 | -56.12228 | 32975 ft | 500 kts | 80° |
| 2026-04-30 12:21 | 63.64635 | -55.96835 | 32976 ft | 500 kts | 80° |
| 2026-04-30 12:21 | 63.65878 | -55.81348 | 32976 ft | 500 kts | 80° |
| 2026-04-30 12:22 | 63.67092 | -55.66002 | 32974 ft | 500 kts | 81° |
| 2026-04-30 12:22 | 63.68300 | -55.50514 | 32916 ft | 500 kts | 81° |
| 2026-04-30 12:23 | 63.69492 | -55.35014 | 32958 ft | 502 kts | 81° |
| 2026-04-30 12:23 | 63.70659 | -55.19595 | 32959 ft | 501 kts | 81° |
| 2026-04-30 12:24 | 63.71820 | -55.04038 | 32954 ft | 501 kts | 81° |
| 2026-04-30 12:24 | 63.72961 | -54.88494 | 32955 ft | 501 kts | 81° |
| 2026-04-30 12:25 | 63.74079 | -54.73043 | 32952 ft | 501 kts | 81° |
| 2026-04-30 12:25 | 63.75187 | -54.57476 | 32946 ft | 501 kts | 82° |
| 2026-04-30 12:26 | 63.76275 | -54.41950 | 32922 ft | 501 kts | 82° |
| 2026-04-30 12:26 | 63.77346 | -54.26416 | 32963 ft | 501 kts | 82° |
| 2026-04-30 12:27 | 63.78409 | -54.10725 | 32941 ft | 503 kts | 82° |
| 2026-04-30 12:27 | 63.79449 | -53.95130 | 32938 ft | 503 kts | 82° |
| 2026-04-30 12:28 | 63.80478 | -53.79423 | 32935 ft | 503 kts | 82° |
| 2026-04-30 12:28 | 63.81482 | -53.63838 | 32930 ft | 503 kts | 82° |
| 2026-04-30 12:29 | 63.82477 | -53.48115 | 32934 ft | 503 kts | 83° |
| 2026-04-30 12:29 | 63.83448 | -53.32485 | 32896 ft | 503 kts | 83° |
| 2026-04-30 12:30 | 63.84407 | -53.16790 | 32946 ft | 503 kts | 83° |
| 2026-04-30 12:30 | 63.85347 | -53.01085 | 32926 ft | 506 kts | 83° |
| 2026-04-30 12:31 | 63.86277 | -52.85262 | 32917 ft | 505 kts | 83° |
| 2026-04-30 12:31 | 63.87191 | -52.69411 | 32919 ft | 505 kts | 83° |
| 2026-04-30 12:32 | 63.88084 | -52.53604 | 32915 ft | 505 kts | 83° |
| 2026-04-30 12:32 | 63.88962 | -52.37763 | 32911 ft | 505 kts | 83° |
| 2026-04-30 12:33 | 63.89816 | -52.22019 | 32882 ft | 505 kts | 84° |
| 2026-04-30 12:33 | 63.90660 | -52.06152 | 32913 ft | 506 kts | 84° |
| 2026-04-30 12:34 | 63.91487 | -51.90227 | 32904 ft | 507 kts | 84° |
| 2026-04-30 12:34 | 63.92294 | -51.74367 | 32903 ft | 507 kts | 84° |
| 2026-04-30 12:35 | 63.93090 | -51.58390 | 32902 ft | 507 kts | 84° |
| 2026-04-30 12:35 | 63.93861 | -51.42537 | 32894 ft | 507 kts | 84° |
| 2026-04-30 12:36 | 63.94619 | -51.26572 | 32899 ft | 507 kts | 84° |
| 2026-04-30 12:36 | 63.95360 | -51.10603 | 32881 ft | 507 kts | 85° |
| 2026-04-30 12:37 | 63.96084 | -50.94615 | 32911 ft | 510 kts | 85° |
| 2026-04-30 12:37 | 63.96791 | -50.78623 | 32901 ft | 511 kts | 85° |
| 2026-04-30 12:38 | 63.97491 | -50.62482 | 32910 ft | 511 kts | 85° |
| 2026-04-30 12:38 | 63.98174 | -50.46362 | 32909 ft | 511 kts | 85° |
| 2026-04-30 12:39 | 63.98837 | -50.30343 | 32905 ft | 511 kts | 85° |
| 2026-04-30 12:39 | 63.99488 | -50.14211 | 32914 ft | 511 kts | 85° |
| 2026-04-30 12:40 | 64.00085 | -49.98042 | 32898 ft | 510 kts | 87° |
| 2026-04-30 12:40 | 64.00601 | -49.81841 | 32906 ft | 514 kts | 86° |
| 2026-04-30 12:41 | 64.01127 | -49.65678 | 32931 ft | 514 kts | 86° |
| 2026-04-30 12:41 | 64.01643 | -49.49310 | 32932 ft | 514 kts | 86° |
| 2026-04-30 12:42 | 64.02137 | -49.33052 | 32936 ft | 514 kts | 86° |
| 2026-04-30 12:42 | 64.02611 | -49.16868 | 32939 ft | 514 kts | 87° |
| 2026-04-30 12:43 | 64.03072 | -49.00491 | 32951 ft | 514 kts | 87° |
| 2026-04-30 12:43 | 64.03512 | -48.84215 | 32958 ft | 514 kts | 87° |
| 2026-04-30 12:44 | 64.03935 | -48.67868 | 32943 ft | 518 kts | 87° |
| 2026-04-30 12:44 | 64.04339 | -48.51552 | 32934 ft | 518 kts | 87° |
| 2026-04-30 12:45 | 64.04729 | -48.35014 | 32913 ft | 518 kts | 87° |
| 2026-04-30 12:45 | 64.05096 | -48.18714 | 32915 ft | 518 kts | 88° |
| 2026-04-30 12:46 | 64.05446 | -48.02304 | 32940 ft | 518 kts | 88° |
| 2026-04-30 12:46 | 64.05779 | -47.85861 | 32933 ft | 518 kts | 88° |
| 2026-04-30 12:47 | 64.06093 | -47.69438 | 32972 ft | 519 kts | 88° |
| 2026-04-30 12:47 | 64.06389 | -47.52934 | 32933 ft | 520 kts | 88° |
| 2026-04-30 12:48 | 64.06667 | -47.36386 | 32939 ft | 521 kts | 88° |
| 2026-04-30 12:48 | 64.06927 | -47.19859 | 32953 ft | 521 kts | 88° |
| 2026-04-30 12:49 | 64.07167 | -47.03330 | 32941 ft | 521 kts | 88° |
| 2026-04-30 12:49 | 64.07388 | -46.86886 | 32945 ft | 521 kts | 89° |
| 2026-04-30 12:50 | 64.07590 | -46.70357 | 32957 ft | 521 kts | 89° |
| 2026-04-30 12:50 | 64.07775 | -46.53821 | 32955 ft | 522 kts | 89° |
| 2026-04-30 12:51 | 64.07941 | -46.37217 | 32956 ft | 522 kts | 89° |
| 2026-04-30 12:51 | 64.08088 | -46.20635 | 32957 ft | 522 kts | 89° |
| 2026-04-30 12:52 | 64.08216 | -46.04052 | 32956 ft | 522 kts | 89° |
| 2026-04-30 12:52 | 64.08325 | -45.87439 | 32960 ft | 522 kts | 89° |
| 2026-04-30 12:53 | 64.08416 | -45.70853 | 32952 ft | 522 kts | 89° |
| 2026-04-30 12:53 | 64.08487 | -45.54268 | 32956 ft | 522 kts | 90° |
| 2026-04-30 12:54 | 64.08540 | -45.37688 | 32961 ft | 521 kts | 90° |
| 2026-04-30 12:54 | 64.08573 | -45.21094 | 32959 ft | 522 kts | 90° |
| 2026-04-30 12:55 | 64.08588 | -45.04517 | 32957 ft | 522 kts | 90° |
| 2026-04-30 12:55 | 64.08584 | -44.87916 | 32950 ft | 522 kts | 90° |
| 2026-04-30 12:56 | 64.08561 | -44.71341 | 32953 ft | 522 kts | 90° |
| 2026-04-30 12:56 | 64.08520 | -44.54763 | 32942 ft | 522 kts | 90° |
| 2026-04-30 12:57 | 64.08459 | -44.38208 | 32925 ft | 519 kts | 90° |
| 2026-04-30 12:57 | 64.08381 | -44.21812 | 32935 ft | 518 kts | 91° |
| 2026-04-30 12:58 | 64.08283 | -44.05348 | 32909 ft | 518 kts | 91° |
| 2026-04-30 12:58 | 64.08167 | -43.88856 | 32902 ft | 518 kts | 91° |
| 2026-04-30 12:59 | 64.08032 | -43.72394 | 32891 ft | 518 kts | 91° |
| 2026-04-30 12:59 | 64.07879 | -43.55935 | 32882 ft | 518 kts | 91° |
| 2026-04-30 13:00 | 64.07738 | -43.42241 | 32883 ft | 518 kts | 91° |
| 2026-04-30 13:00 | 64.07549 | -43.25714 | 32896 ft | 514 kts | 92° |
| 2026-04-30 13:01 | 64.07346 | -43.09458 | 32840 ft | 514 kts | 92° |
| 2026-04-30 13:01 | 64.07124 | -42.93123 | 32841 ft | 515 kts | 93° |
| 2026-04-30 13:02 | 64.06882 | -42.76762 | 32829 ft | 515 kts | 93° |
| 2026-04-30 13:02 | 64.06623 | -42.60405 | 32814 ft | 515 kts | 93° |
| 2026-04-30 13:03 | 64.06345 | -42.44073 | 32816 ft | 515 kts | 93° |
| 2026-04-30 13:03 | 64.06049 | -42.27745 | 32822 ft | 514 kts | 93° |
| 2026-04-30 13:04 | 64.05733 | -42.11307 | 32862 ft | 523 kts | 93° |
| 2026-04-30 13:04 | 64.05394 | -41.94694 | 32866 ft | 522 kts | 94° |
| 2026-04-30 13:05 | 64.05040 | -41.78260 | 32868 ft | 522 kts | 94° |
| 2026-04-30 13:06 | 64.04469 | -41.53410 | 32887 ft | 522 kts | 94° |
| 2026-04-30 13:06 | 64.04065 | -41.36827 | 32868 ft | 522 kts | 94° |
| 2026-04-30 13:07 | 64.03642 | -41.20276 | 32868 ft | 523 kts | 94° |
| 2026-04-30 13:07 | 64.03201 | -41.03761 | 32905 ft | 521 kts | 94° |
| 2026-04-30 13:08 | 64.02746 | -40.87234 | 32871 ft | 521 kts | 94° |
| 2026-04-30 13:08 | 64.02276 | -40.70749 | 32868 ft | 521 kts | 94° |
| 2026-04-30 13:09 | 64.01788 | -40.54230 | 32874 ft | 521 kts | 95° |
| 2026-04-30 13:09 | 64.01284 | -40.37747 | 32873 ft | 521 kts | 95° |
| 2026-04-30 13:10 | 64.00763 | -40.21268 | 32863 ft | 521 kts | 95° |
| 2026-04-30 13:10 | 64.00224 | -40.04773 | 32858 ft | 521 kts | 95° |
| 2026-04-30 13:11 | 64.00424 | -39.88297 | 32827 ft | 523 kts | 86° |
| 2026-04-30 13:11 | 64.00946 | -39.71788 | 32863 ft | 523 kts | 85° |
| 2026-04-30 13:12 | 64.01473 | -39.55250 | 32856 ft | 523 kts | 86° |
| 2026-04-30 13:12 | 64.01983 | -39.38691 | 32852 ft | 523 kts | 86° |
| 2026-04-30 13:13 | 64.02711 | -39.13871 | 32854 ft | 523 kts | 86° |
| 2026-04-30 13:14 | 64.03395 | -38.89137 | 32853 ft | 524 kts | 86° |
| 2026-04-30 13:14 | 64.04040 | -38.64233 | 32809 ft | 524 kts | 86° |
| 2026-04-30 13:15 | 64.04643 | -38.39322 | 32842 ft | 524 kts | 87° |
| 2026-04-30 13:16 | 64.05021 | -38.22728 | 32835 ft | 524 kts | 87° |
| 2026-04-30 13:16 | 64.05380 | -38.06102 | 32887 ft | 524 kts | 87° |
| 2026-04-30 13:17 | 64.05884 | -37.81115 | 32835 ft | 526 kts | 87° |
| 2026-04-30 13:18 | 64.06346 | -37.56088 | 32834 ft | 526 kts | 88° |
| 2026-04-30 13:18 | 64.06765 | -37.31024 | 32785 ft | 526 kts | 88° |
| 2026-04-30 13:19 | 64.07021 | -37.14333 | 32830 ft | 525 kts | 88° |
| 2026-04-30 13:19 | 64.07255 | -36.97772 | 32830 ft | 526 kts | 88° |
| 2026-04-30 13:20 | 64.07472 | -36.81082 | 32833 ft | 526 kts | 88° |
| 2026-04-30 13:20 | 64.07670 | -36.64355 | 32824 ft | 526 kts | 88° |
| 2026-04-30 13:21 | 64.07849 | -36.47631 | 32825 ft | 526 kts | 89° |
| 2026-04-30 13:22 | 64.08082 | -36.22573 | 32820 ft | 526 kts | 89° |
| 2026-04-30 13:22 | 64.08271 | -35.97480 | 32824 ft | 527 kts | 89° |
| 2026-04-30 13:23 | 64.08417 | -35.72362 | 32816 ft | 527 kts | 89° |
| 2026-04-30 13:24 | 64.08545 | -35.38999 | 32809 ft | 526 kts | 89° |
| 2026-04-30 13:25 | 64.08596 | -35.05416 | 32813 ft | 528 kts | 90° |
| 2026-04-30 13:26 | 64.08552 | -34.63574 | 32808 ft | 528 kts | 90° |
| 2026-04-30 13:28 | 64.08386 | -34.21651 | 32796 ft | 527 kts | 90° |
| 2026-04-30 13:28 | 64.08230 | -33.96526 | 32806 ft | 527 kts | 91° |
| 2026-04-30 13:29 | 64.07954 | -33.63059 | 32802 ft | 527 kts | 91° |
| 2026-04-30 13:31 | 64.07500 | -33.21201 | 32814 ft | 527 kts | 91° |
| 2026-04-30 13:32 | 64.06925 | -32.79284 | 32798 ft | 528 kts | 92° |
| 2026-04-30 13:33 | 64.06379 | -32.45790 | 32799 ft | 528 kts | 92° |
| 2026-04-30 13:34 | 64.05918 | -32.20627 | 32809 ft | 529 kts | 92° |
| 2026-04-30 13:35 | 64.05235 | -31.87080 | 32799 ft | 529 kts | 93° |
| 2026-04-30 13:36 | 64.04478 | -31.53682 | 32802 ft | 528 kts | 93° |
| 2026-04-30 13:36 | 64.03858 | -31.28575 | 32824 ft | 528 kts | 93° |
| 2026-04-30 13:37 | 64.03195 | -31.03463 | 32804 ft | 529 kts | 94° |
| 2026-04-30 13:38 | 64.02496 | -30.78360 | 32798 ft | 528 kts | 94° |
| 2026-04-30 13:39 | 64.01506 | -30.44912 | 32755 ft | 528 kts | 94° |
| 2026-04-30 13:40 | 64.00718 | -30.19860 | 32799 ft | 528 kts | 94° |
| 2026-04-30 13:40 | 64.00177 | -30.03173 | 32803 ft | 528 kts | 92° |
| 2026-04-30 13:41 | 64.00738 | -29.86569 | 32801 ft | 527 kts | 82° |
| 2026-04-30 13:41 | 64.01566 | -29.69961 | 32803 ft | 527 kts | 82° |
| 2026-04-30 13:42 | 64.02401 | -29.53375 | 32801 ft | 527 kts | 82° |
| 2026-04-30 13:42 | 64.03614 | -29.28585 | 32803 ft | 526 kts | 82° |
| 2026-04-30 13:43 | 64.04408 | -29.11872 | 32801 ft | 526 kts | 82° |
| 2026-04-30 13:43 | 64.05172 | -28.95372 | 32800 ft | 526 kts | 82° |
| 2026-04-30 13:44 | 64.05803 | -28.81437 | 32801 ft | 526 kts | 82° |
| 2026-04-30 13:44 | 64.06656 | -28.62102 | 32794 ft | 526 kts | 83° |
| 2026-04-30 13:45 | 64.07599 | -28.39979 | 32803 ft | 525 kts | 83° |
| 2026-04-30 13:46 | 64.08284 | -28.23378 | 32804 ft | 525 kts | 83° |
| 2026-04-30 13:46 | 64.08951 | -28.06765 | 32807 ft | 525 kts | 83° |
| 2026-04-30 13:47 | 64.09599 | -27.90121 | 32804 ft | 525 kts | 83° |
| 2026-04-30 13:47 | 64.10229 | -27.73469 | 32822 ft | 525 kts | 84° |
| 2026-04-30 13:48 | 64.10838 | -27.56863 | 32810 ft | 524 kts | 84° |
| 2026-04-30 13:48 | 64.11430 | -27.40213 | 32810 ft | 524 kts | 84° |
| 2026-04-30 13:49 | 64.12005 | -27.23675 | 32382 ft | 516 kts | 84° |
| 2026-04-30 13:49 | 64.12206 | -27.15431 | 31491 ft | 522 kts | 90° |
| 2026-04-30 13:49 | 64.12158 | -27.07096 | 30601 ft | 527 kts | 90° |
| 2026-04-30 13:49 | 64.12140 | -26.98711 | 30096 ft | 524 kts | 90° |
| 2026-04-30 13:50 | 64.12135 | -26.90383 | 29704 ft | 517 kts | 90° |
| 2026-04-30 13:50 | 64.12133 | -26.74140 | 28538 ft | 510 kts | 90° |
| 2026-04-30 13:50 | 64.12127 | -26.66054 | 27977 ft | 505 kts | 90° |
| 2026-04-30 13:51 | 64.12115 | -26.58066 | 27537 ft | 499 kts | 90° |
| 2026-04-30 13:51 | 64.12099 | -26.50151 | 27024 ft | 496 kts | 90° |
| 2026-04-30 13:51 | 64.12080 | -26.42282 | 26501 ft | 493 kts | 90° |
| 2026-04-30 13:51 | 64.12056 | -26.34463 | 26017 ft | 490 kts | 90° |
| 2026-04-30 13:52 | 64.12029 | -26.26700 | 25516 ft | 487 kts | 90° |
| 2026-04-30 13:52 | 64.11997 | -26.18970 | 25020 ft | 484 kts | 90° |
| 2026-04-30 13:52 | 64.11962 | -26.11284 | 24528 ft | 482 kts | 90° |
| 2026-04-30 13:52 | 64.11923 | -26.03640 | 24081 ft | 480 kts | 91° |
| 2026-04-30 13:53 | 64.11879 | -25.96021 | 23571 ft | 478 kts | 91° |
| 2026-04-30 13:53 | 64.11833 | -25.88430 | 23019 ft | 476 kts | 91° |
| 2026-04-30 13:53 | 64.11782 | -25.80885 | 22515 ft | 472 kts | 91° |
| 2026-04-30 13:53 | 64.11729 | -25.73427 | 22058 ft | 466 kts | 91° |
| 2026-04-30 13:54 | 64.11671 | -25.66036 | 21605 ft | 462 kts | 91° |
| 2026-04-30 13:54 | 64.11611 | -25.58729 | 21145 ft | 458 kts | 92° |
| 2026-04-30 13:54 | 64.11548 | -25.51475 | 20690 ft | 454 kts | 92° |
| 2026-04-30 13:54 | 64.11482 | -25.44288 | 20238 ft | 450 kts | 92° |
| 2026-04-30 13:55 | 64.11412 | -25.37160 | 19790 ft | 446 kts | 92° |
| 2026-04-30 13:55 | 64.11340 | -25.30087 | 19346 ft | 443 kts | 92° |
| 2026-04-30 13:55 | 64.11265 | -25.23069 | 18904 ft | 440 kts | 92° |
| 2026-04-30 13:55 | 64.11188 | -25.16087 | 18464 ft | 437 kts | 92° |
| 2026-04-30 13:56 | 64.11107 | -25.09154 | 18005 ft | 434 kts | 92° |
| 2026-04-30 13:56 | 64.11026 | -25.02287 | 17529 ft | 430 kts | 92° |
| 2026-04-30 13:56 | 64.10943 | -24.95480 | 17038 ft | 426 kts | 93° |
| 2026-04-30 13:56 | 64.10862 | -24.88744 | 16645 ft | 421 kts | 91° |
| 2026-04-30 13:57 | 64.11063 | -24.82080 | 16178 ft | 418 kts | 85° |
| 2026-04-30 13:57 | 64.11311 | -24.75477 | 15781 ft | 414 kts | 85° |
| 2026-04-30 13:57 | 64.11534 | -24.68947 | 15385 ft | 410 kts | 86° |
| 2026-04-30 13:57 | 64.11739 | -24.62470 | 14959 ft | 407 kts | 86° |
| 2026-04-30 13:58 | 64.11935 | -24.56037 | 14539 ft | 404 kts | 86° |
| 2026-04-30 13:58 | 64.12312 | -24.43297 | 13709 ft | 398 kts | 86° |
| 2026-04-30 13:58 | 64.12493 | -24.36987 | 13256 ft | 395 kts | 86° |
| 2026-04-30 13:59 | 64.12670 | -24.30744 | 12823 ft | 391 kts | 87° |
| 2026-04-30 13:59 | 64.12841 | -24.24638 | 12417 ft | 387 kts | 87° |
| 2026-04-30 13:59 | 64.13009 | -24.18520 | 12017 ft | 383 kts | 87° |
| 2026-04-30 13:59 | 64.13173 | -24.12465 | 11620 ft | 379 kts | 87° |
| 2026-04-30 14:00 | 64.13333 | -24.06452 | 11229 ft | 376 kts | 88° |
| 2026-04-30 14:00 | 64.13642 | -23.94629 | 10454 ft | 369 kts | 88° |
| 2026-04-30 14:00 | 64.13792 | -23.88806 | 10146 ft | 363 kts | 88° |
| 2026-04-30 14:01 | 64.13941 | -23.83106 | 9975 ft | 354 kts | 88° |
| 2026-04-30 14:01 | 64.14084 | -23.77565 | 9779 ft | 345 kts | 88° |
| 2026-04-30 14:01 | 64.14224 | -23.72099 | 9408 ft | 342 kts | 88° |
| 2026-04-30 14:01 | 64.14361 | -23.66668 | 8991 ft | 341 kts | 88° |
| 2026-04-30 14:02 | 64.14495 | -23.61254 | 8611 ft | 339 kts | 89° |
| 2026-04-30 14:02 | 64.14626 | -23.55887 | 8248 ft | 336 kts | 89° |
| 2026-04-30 14:02 | 64.14754 | -23.50564 | 7894 ft | 333 kts | 89° |
| 2026-04-30 14:02 | 64.14880 | -23.45300 | 7546 ft | 330 kts | 89° |
| 2026-04-30 14:03 | 64.15002 | -23.40072 | 7199 ft | 327 kts | 89° |
| 2026-04-30 14:03 | 64.15122 | -23.34884 | 6836 ft | 325 kts | 89° |
| 2026-04-30 14:03 | 64.15238 | -23.29740 | 6501 ft | 322 kts | 89° |
| 2026-04-30 14:03 | 64.15352 | -23.24637 | 6146 ft | 320 kts | 90° |
| 2026-04-30 14:04 | 64.15463 | -23.19581 | 5828 ft | 316 kts | 90° |
| 2026-04-30 14:04 | 64.15571 | -23.14594 | 5565 ft | 310 kts | 90° |
| 2026-04-30 14:04 | 64.15675 | -23.09692 | 5254 ft | 307 kts | 90° |
| 2026-04-30 14:04 | 64.15777 | -23.04824 | 4921 ft | 305 kts | 90° |
| 2026-04-30 14:05 | 64.15876 | -23.00052 | 4622 ft | 303 kts | 90° |
| 2026-04-30 14:05 | 64.15973 | -22.95249 | 4297 ft | 300 kts | 90° |
| 2026-04-30 14:05 | 64.16067 | -22.90535 | 4136 ft | 292 kts | 90° |
| 2026-04-30 14:05 | 64.16158 | -22.85964 | 4018 ft | 282 kts | 90° |
| 2026-04-30 14:06 | 64.16245 | -22.81547 | 3918 ft | 270 kts | 91° |
| 2026-04-30 14:06 | 64.15576 | -22.73846 | 3577 ft | 233 kts | 115° |
| 2026-04-30 14:07 | 64.14526 | -22.67175 | 3246 ft | 212 kts | 116° |
| 2026-04-30 14:07 | 64.14021 | -22.64041 | 3105 ft | 208 kts | 119° |
| 2026-04-30 14:07 | 64.13149 | -22.61650 | 2877 ft | 190 kts | 158° |
| 2026-04-30 14:08 | 64.10680 | -22.60682 | 2431 ft | 180 kts | 182° |
| 2026-04-30 14:08 | 64.09430 | -22.60554 | 2229 ft | 179 kts | 185° |
| 2026-04-30 14:08 | 64.07076 | -22.60516 | 1796 ft | 153 kts | 186° |
| 2026-04-30 14:09 | 64.06073 | -22.60514 | 1589 ft | 136 kts | 188° |
| 2026-04-30 14:09 | 64.05171 | -22.60517 | 1444 ft | 128 kts | 189° |
| 2026-04-30 14:09 | 64.03390 | -22.60529 | 1068 ft | 127 kts | 188° |
| 2026-04-30 14:10 | 64.02501 | -22.60529 | 887 ft | 128 kts | 189° |
| 2026-04-30 14:10 | 64.01620 | -22.60537 | 703 ft | 126 kts | 188° |
| 2026-04-30 14:10 | 64.00743 | -22.60523 | 576 ft | 126 kts | 188° |
| 2026-04-30 14:10 | 63.99864 | -22.60533 | 376 ft | 126 kts | 189° |
| 2026-04-30 14:11 | 63.98990 | -22.60527 | 212 ft | 126 kts | 189° |
| 2026-04-30 14:11 | 63.98208 | -22.60550 | 175 ft | 90 kts | 181° |
| 2026-04-30 14:11 | 63.97786 | -22.60541 | 175 ft | 41 kts | 180° |
| 2026-04-30 14:11 | 63.97572 | -22.60542 | 176 ft | 25 kts | 180° |
| 2026-04-30 14:12 | 63.97442 | -22.60613 | 174 ft | 14 kts | 239° |
| 2026-04-30 14:12 | 63.97449 | -22.60830 | 170 ft | 11 kts | 285° |
| 2026-04-30 14:12 | 63.97497 | -22.60941 | 168 ft | 12 kts | 358° |
| 2026-04-30 14:12 | 63.97552 | -22.60941 | 169 ft | 12 kts | 359° |
| 2026-04-30 14:13 | 63.97693 | -22.60942 | 171 ft | 20 kts | 360° |
| 2026-04-30 14:13 | 63.97863 | -22.60943 | 172 ft | 29 kts | 359° |
| 2026-04-30 14:13 | 63.98088 | -22.60942 | 170 ft | 35 kts | 359° |
| 2026-04-30 14:13 | 63.98297 | -22.60943 | 167 ft | 25 kts | 0° |
| 2026-04-30 14:14 | 63.98478 | -22.60939 | 171 ft | 27 kts | 0° |
| 2026-04-30 14:14 | 63.98635 | -22.60941 | 169 ft | 18 kts | 360° |
| 2026-04-30 14:14 | 63.98767 | -22.60942 | 167 ft | 18 kts | 0° |
| 2026-04-30 14:14 | 63.98840 | -22.60956 | 168 ft | 8 kts | 327° |
| 2026-04-30 14:15 | 63.98864 | -22.61092 | 166 ft | 12 kts | 306° |
| 2026-04-30 14:15 | 63.98956 | -22.61124 | 164 ft | 15 kts | 359° |
| 2026-04-30 14:15 | 63.99056 | -22.61125 | 164 ft | 14 kts | 360° |
| 2026-04-30 14:15 | 63.99138 | -22.61126 | 162 ft | 9 kts | 355° |
| 2026-04-30 14:16 | 63.99174 | -22.61250 | 159 ft | 11 kts | 269° |
| 2026-04-30 14:16 | 63.99173 | -22.61470 | 157 ft | 17 kts | 270° |
| 2026-04-30 14:16 | 63.99173 | -22.61776 | 147 ft | 19 kts | 269° |
| 2026-04-30 14:16 | 63.99172 | -22.62052 | 144 ft | 17 kts | 269° |
| 2026-04-30 14:17 | 63.99174 | -22.62262 | 144 ft | 6 kts | 280° |
| 2026-04-30 14:17 | 63.99210 | -22.62307 | 144 ft | 7 kts | 359° |
| 2026-04-30 14:17 | 63.99256 | -22.62305 | 144 ft | 6 kts | 0° |
| 2026-04-30 14:17 | 63.99277 | -22.62305 | 144 ft | 2 kts | 360° |
| 2026-04-30 14:18 | 63.99278 | -22.62305 | 144 ft | 0 kts | 360° |